Time;durP1;ratioP1;P1;durP2;ratioP2;P2;SDS_P1;SDS_P2;PMS_P1;PMS_P2;Temp;Humidity;BMP_temperature;BMP_pressure;BME280_temperature;BME280_humidity;BME280_pressure;Samples;Min_cycle;Max_cycle;Signal;HPM_P1;HPM_P2
2021/03/16 00:00:20;;;;;;;9.93;2.77;;;;;;;3.30;79.84;100849.84;123425;1102;65333;-78
2021/03/16 00:02:47;;;;;;;11.13;2.60;;;;;;;3.32;79.98;100857.59;123669;1105;64972;-79
2021/03/16 00:05:14;;;;;;;6.47;2.70;;;;;;;3.32;79.85;100863.66;123412;1102;65678;-77
2021/03/16 00:07:40;;;;;;;10.50;2.57;;;;;;;3.31;79.16;100861.97;123459;1105;64882;-75
2021/03/16 00:10:07;;;;;;;7.57;2.30;;;;;;;3.32;79.27;100861.03;123432;1102;64891;-76
2021/03/16 00:12:33;;;;;;;3.83;1.20;;;;;;;3.34;79.09;100871.41;123429;1105;64923;-77
2021/03/16 00:15:00;;;;;;;12.63;2.67;;;;;;;3.34;79.13;100876.65;123426;1106;65013;-78
2021/03/16 00:17:26;;;;;;;8.90;1.93;;;;;;;3.33;79.64;100880.22;123350;1105;64895;-77
2021/03/16 00:19:52;;;;;;;6.83;2.10;;;;;;;3.31;79.25;100876.88;123447;1102;64894;-77
2021/03/16 00:22:19;;;;;;;10.17;2.40;;;;;;;3.31;78.36;100875.08;123386;1102;65713;-77
2021/03/16 00:24:45;;;;;;;7.00;1.97;;;;;;;3.32;78.28;100883.80;123395;1102;64937;-78
2021/03/16 00:27:13;;;;;;;9.65;2.35;;;;;;;3.32;79.48;100878.56;123406;1105;65876;-76
2021/03/16 00:29:39;;;;;;;8.97;1.50;;;;;;;3.32;79.59;100881.19;123421;1105;64915;-75
2021/03/16 00:32:06;;;;;;;13.27;2.73;;;;;;;3.30;79.65;100875.23;123413;1105;65001;-75
2021/03/16 00:34:32;;;;;;;12.83;2.93;;;;;;;3.31;79.76;100884.75;123453;1102;64918;-76
2021/03/16 00:36:58;;;;;;;7.73;2.37;;;;;;;3.30;79.40;100891.78;123429;1104;64911;-75
2021/03/16 00:39:24;;;;;;;17.80;3.12;;;;;;;3.29;79.29;100884.86;123412;1102;65048;-77
2021/03/16 00:41:50;;;;;;;9.80;2.03;;;;;;;3.29;78.71;100892.72;123446;1102;65706;-77
2021/03/16 00:44:16;;;;;;;14.95;2.98;;;;;;;3.27;79.13;100894.63;123409;1102;64904;-78
2021/03/16 00:46:43;;;;;;;11.17;2.80;;;;;;;3.28;79.19;100898.94;123431;1105;65004;-76
2021/03/16 00:49:09;;;;;;;11.23;3.33;;;;;;;3.28;79.36;100893.70;123398;1102;64966;-76
2021/03/16 00:51:35;;;;;;;9.68;2.12;;;;;;;3.29;79.24;100900.59;123469;1102;65004;-75
2021/03/16 00:54:02;;;;;;;9.67;3.23;;;;;;;3.29;79.95;100905.01;123442;1102;65100;-77
2021/03/16 00:56:28;;;;;;;10.67;2.73;;;;;;;3.28;79.35;100908.60;123402;1102;64891;-75
2021/03/16 00:58:54;;;;;;;7.57;2.17;;;;;;;3.26;79.30;100920.03;123429;1103;64940;-77
2021/03/16 01:01:20;;;;;;;11.15;3.80;;;;;;;3.25;78.74;100923.62;123434;1102;64958;-77
2021/03/16 01:03:47;;;;;;;9.20;1.97;;;;;;;3.22;77.38;100918.60;123379;1102;64911;-76
2021/03/16 01:06:13;;;;;;;12.00;2.33;;;;;;;3.22;78.28;100915.16;123427;1102;64946;-76
2021/03/16 01:08:39;;;;;;;6.03;2.10;;;;;;;3.18;78.30;100930.28;123364;1105;64975;-75
2021/03/16 01:11:06;;;;;;;7.00;2.73;;;;;;;3.16;78.41;100920.88;123410;1105;64892;-75
2021/03/16 01:13:32;;;;;;;4.53;1.93;;;;;;;3.16;78.05;100931.36;123360;1105;64914;-76
2021/03/16 01:15:59;;;;;;;13.30;3.50;;;;;;;3.13;78.61;100939.48;123443;1102;64918;-77
2021/03/16 01:18:26;;;;;;;11.33;2.57;;;;;;;3.12;78.36;100938.63;123472;1102;64946;-76
2021/03/16 01:20:52;;;;;;;11.40;2.40;;;;;;;3.06;79.41;100939.97;123608;1102;64917;-76
2021/03/16 01:23:19;;;;;;;11.40;2.60;;;;;;;3.04;79.11;100934.00;123659;1105;65922;-75
2021/03/16 01:26:01;;;;;;;8.70;3.13;;;;;;;3.02;79.99;100942.95;123451;1103;64992;-78
2021/03/16 01:28:27;;;;;;;7.53;3.13;;;;;;;2.98;80.01;100946.77;123439;1102;64907;-75
2021/03/16 01:30:53;;;;;;;6.60;2.37;;;;;;;2.97;79.79;100950.31;123463;1102;64892;-74
2021/03/16 01:33:20;;;;;;;16.27;3.13;;;;;;;2.91;79.98;100942.93;123421;1102;64863;-76
2021/03/16 01:35:46;;;;;;;9.50;2.83;;;;;;;2.83;79.99;100952.23;123410;1101;66117;-75
2021/03/16 01:38:12;;;;;;;9.60;2.00;;;;;;;2.78;80.41;100956.97;123406;1102;64891;-75
2021/03/16 01:40:40;;;;;;;12.30;2.87;;;;;;;2.71;81.80;100950.55;123423;1102;65349;-76
2021/03/16 01:43:21;;;;;;;3.00;1.60;;;;;;;2.64;81.79;100951.98;123589;1102;64923;-76
2021/03/16 01:45:49;;;;;;;12.07;1.97;;;;;;;2.57;82.13;100950.76;123419;1102;64936;-75
2021/03/16 01:48:34;;;;;;;8.00;1.90;;;;;;;2.48;82.76;100956.70;123403;1102;64888;-76
2021/03/16 01:51:03;;;;;;;5.20;1.82;;;;;;;2.41;83.13;100946.69;123434;1102;64917;-76
2021/03/16 01:53:29;;;;;;;4.67;1.07;;;;;;;2.34;82.97;100953.35;123449;1103;64902;-77
2021/03/16 01:55:57;;;;;;;5.37;1.20;;;;;;;2.29;83.25;100958.08;123427;1106;64923;-77
2021/03/16 01:58:23;;;;;;;12.93;2.60;;;;;;;2.23;83.81;100953.30;123506;1105;65045;-77
2021/03/16 02:00:50;;;;;;;9.05;1.77;;;;;;;2.17;83.39;100953.78;123393;1105;64946;-75
2021/03/16 02:03:18;;;;;;;7.70;2.40;;;;;;;2.12;84.28;100961.12;123366;1104;65902;-77
2021/03/16 02:05:45;;;;;;;8.50;1.70;;;;;;;2.08;84.16;100964.91;123468;1105;64840;-79
2021/03/16 02:08:30;;;;;;;6.67;1.87;;;;;;;2.02;84.28;100956.58;123406;1102;64895;-77
2021/03/16 02:11:19;;;;;;;10.50;2.03;;;;;;;1.97;84.58;100968.32;123490;1103;64911;-76
2021/03/16 02:14:05;;;;;;;14.50;2.37;;;;;;;1.90;85.56;100961.88;123447;1102;65217;-75
2021/03/16 02:16:37;;;;;;;8.10;1.93;;;;;;;1.84;85.32;100958.75;123363;1105;65906;-76
2021/03/16 02:19:12;;;;;;;15.13;1.60;;;;;;;1.79;85.43;100970.52;123608;1105;64870;-76
2021/03/16 02:21:39;;;;;;;;;;;;;;;1.73;85.61;100963.94;123538;1102;64978;-75
2021/03/16 02:24:05;;;;;;;8.13;2.30;;;;;;;1.69;86.09;100970.33;123389;1102;65269;-76
2021/03/16 02:27:08;;;;;;;7.77;1.80;;;;;;;1.65;86.23;100968.05;123461;1102;64895;-77
2021/03/16 02:29:50;;;;;;;9.00;2.13;;;;;;;1.58;86.55;100968.48;123412;1102;65715;-76
2021/03/16 02:32:23;;;;;;;8.93;1.50;;;;;;;1.57;86.61;100982.52;123974;1105;64831;-74
2021/03/16 02:34:59;;;;;;;9.67;1.83;;;;;;;1.54;87.15;100977.49;123775;1102;65378;-75
2021/03/16 02:37:27;;;;;;;14.70;2.73;;;;;;;1.54;86.63;100976.67;123782;1102;64880;-77
2021/03/16 02:39:55;;;;;;;6.33;1.80;;;;;;;1.54;86.37;100977.49;123508;1102;64946;-77
2021/03/16 02:42:24;;;;;;;11.10;2.30;;;;;;;1.51;86.69;100985.57;123389;1105;65131;-76
2021/03/16 02:44:52;;;;;;;7.30;1.63;;;;;;;1.50;86.93;100994.34;123540;1102;64947;-75
2021/03/16 02:47:21;;;;;;;10.20;1.70;;;;;;;1.50;86.94;101003.97;123663;1102;64876;-76
2021/03/16 02:49:48;;;;;;;9.70;2.43;;;;;;;1.48;86.72;100998.02;123596;1103;65010;-75
2021/03/16 02:52:16;;;;;;;9.10;1.95;;;;;;;1.45;86.91;101009.53;123428;1105;64981;-76
2021/03/16 02:54:44;;;;;;;8.47;1.90;;;;;;;1.45;86.48;101003.47;123382;1106;64941;-76
2021/03/16 02:57:11;;;;;;;13.00;3.63;;;;;;;1.44;86.57;101005.23;123429;1105;65907;-76
2021/03/16 02:59:41;;;;;;;9.20;2.00;;;;;;;1.44;86.89;101007.84;123471;1105;65246;-75
2021/03/16 03:02:13;;;;;;;11.43;2.20;;;;;;;1.43;86.17;101012.24;123462;1102;64899;-77
2021/03/16 03:04:46;;;;;;;5.10;1.43;;;;;;;1.43;86.56;101008.80;123481;1102;64895;-75
2021/03/16 03:07:14;;;;;;;18.40;2.13;;;;;;;1.45;86.72;101009.53;123426;1102;64940;-77
2021/03/16 03:09:40;;;;;;;9.27;1.37;;;;;;;1.46;86.56;101020.81;123485;1105;65620;-75
2021/03/16 03:12:08;;;;;;;4.93;1.80;;;;;;;1.45;87.02;101022.60;123552;1102;64897;-75
2021/03/16 03:14:38;;;;;;;10.10;2.20;;;;;;;1.48;86.79;101024.16;123454;1105;64834;-79
2021/03/16 03:17:08;;;;;;;8.40;2.00;;;;;;;1.48;87.25;101022.38;123414;1103;64885;-75
2021/03/16 03:19:35;;;;;;;12.07;1.90;;;;;;;1.49;86.78;101031.90;123622;1105;64990;-75
2021/03/16 03:22:11;;;;;;;14.37;2.40;;;;;;;1.52;87.15;101036.90;123419;1105;64910;-75
2021/03/16 03:24:46;;;;;;;5.80;1.70;;;;;;;1.53;87.17;101037.73;123578;1102;65447;-76
2021/03/16 03:27:39;;;;;;;10.87;2.37;;;;;;;1.50;86.64;101036.17;123431;1102;64885;-75
2021/03/16 03:30:07;;;;;;;9.73;3.17;;;;;;;1.48;86.95;101038.05;123681;1105;65715;-76
2021/03/16 03:32:36;;;;;;;9.43;2.17;;;;;;;1.49;87.60;101042.36;123391;1105;64975;-74
2021/03/16 03:35:05;;;;;;;7.90;2.25;;;;;;;1.50;88.28;101064.93;123484;1102;64888;-76
2021/03/16 03:37:33;;;;;;;14.80;2.15;;;;;;;1.54;88.12;101048.09;123466;1102;65905;-77
2021/03/16 03:40:04;;;;;;;12.03;2.47;;;;;;;1.57;88.25;101060.11;123416;1105;64981;-75
2021/03/16 03:42:31;;;;;;;13.23;2.70;;;;;;;1.58;88.29;101054.77;123504;1105;64908;-75
2021/03/16 03:45:00;;;;;;;13.10;2.87;;;;;;;1.57;87.94;101055.73;123334;1105;65046;-75
2021/03/16 03:47:29;;;;;;;23.30;3.77;;;;;;;1.56;87.48;101053.22;123530;1102;64882;-76
2021/03/16 03:49:56;;;;;;;18.97;4.43;;;;;;;1.55;87.61;101060.23;123539;1102;65169;-78
2021/03/16 03:52:24;;;;;;;4.23;1.43;;;;;;;1.53;88.25;101059.50;123460;1105;64844;-77
2021/03/16 03:54:51;;;;;;;13.53;2.83;;;;;;;1.55;88.13;101073.31;123396;1105;65032;-77
2021/03/16 03:57:18;;;;;;;12.80;3.73;;;;;;;1.55;88.68;101078.53;123419;1105;65014;-76
2021/03/16 03:59:46;;;;;;;10.93;3.67;;;;;;;1.60;88.46;101076.42;123424;1102;64867;-77
2021/03/16 04:02:14;;;;;;;15.37;2.63;;;;;;;1.66;88.44;101076.92;123490;1105;65244;-76
2021/03/16 04:04:41;;;;;;;15.03;3.97;;;;;;;1.71;88.54;101070.44;123379;1105;65008;-75
2021/03/16 04:07:08;;;;;;;14.40;3.53;;;;;;;1.75;88.48;101084.14;123286;1102;64941;-74
2021/03/16 04:09:35;;;;;;;12.87;3.90;;;;;;;1.80;88.07;101084.64;123342;1105;65020;-74
2021/03/16 04:12:03;;;;;;;7.10;3.00;;;;;;;1.83;87.90;101098.34;123412;1104;64981;-76
2021/03/16 04:14:30;;;;;;;14.93;3.27;;;;;;;1.83;88.24;101097.52;123622;1105;64923;-77
2021/03/16 04:16:58;;;;;;;17.63;4.43;;;;;;;1.84;88.27;101093.95;123526;1105;65288;-76
2021/03/16 04:19:25;;;;;;;23.13;6.67;;;;;;;1.82;87.70;101095.83;123439;1103;65440;-76
2021/03/16 04:21:52;;;;;;;11.87;3.30;;;;;;;1.82;87.39;101117.59;123315;1105;64972;-78
2021/03/16 04:24:20;;;;;;;10.07;3.93;;;;;;;1.81;87.37;101099.41;123363;1105;64942;-77
2021/03/16 04:26:46;;;;;;;13.30;4.43;;;;;;;1.81;87.08;101109.87;123473;1103;64886;-79
2021/03/16 04:29:12;;;;;;;12.43;2.93;;;;;;;1.81;87.45;101102.85;123396;1102;65214;-77
2021/03/16 04:31:38;;;;;;;8.03;3.10;;;;;;;1.82;87.60;101106.30;123419;1102;65425;-77
2021/03/16 04:34:05;;;;;;;16.37;4.27;;;;;;;1.84;87.31;101107.02;123380;1102;64941;-78
2021/03/16 04:36:31;;;;;;;8.00;3.95;;;;;;;1.84;87.63;101104.41;123425;1105;64927;-77
2021/03/16 04:38:57;;;;;;;15.50;3.55;;;;;;;1.86;87.60;101112.98;123512;1105;64943;-77
2021/03/16 04:41:23;;;;;;;3.93;2.17;;;;;;;1.85;87.20;101108.71;123491;1104;64983;-78
2021/03/16 04:43:49;;;;;;;10.95;3.50;;;;;;;1.85;86.58;101111.33;123417;1103;64998;-79
2021/03/16 04:46:17;;;;;;;9.47;3.83;;;;;;;1.85;87.18;101116.56;123384;1105;64886;-79
2021/03/16 04:48:43;;;;;;;6.77;3.37;;;;;;;1.86;87.22;101120.83;123345;1105;64940;-76
2021/03/16 04:51:09;;;;;;;13.17;4.80;;;;;;;1.87;87.15;101124.28;123360;1102;64975;-77
2021/03/16 04:53:35;;;;;;;8.23;3.40;;;;;;;1.88;87.27;101131.20;123331;1102;65351;-77
2021/03/16 04:56:02;;;;;;;7.10;2.40;;;;;;;1.89;87.18;101127.63;123485;1102;64918;-78
2021/03/16 04:58:36;;;;;;;8.97;4.17;;;;;;;1.87;87.17;101125.14;123339;1102;64898;-77
2021/03/16 05:01:03;;;;;;;15.63;4.03;;;;;;;1.89;86.96;101127.63;123434;1105;64972;-78
2021/03/16 05:03:30;;;;;;;19.50;3.70;;;;;;;1.87;86.64;101140.84;123475;1105;64928;-76
2021/03/16 05:05:56;;;;;;;11.23;4.07;;;;;;;1.88;87.23;101132.03;123758;1102;64925;-77
2021/03/16 05:08:23;;;;;;;16.47;4.50;;;;;;;1.89;86.83;101132.85;123350;1105;65042;-77
2021/03/16 05:10:50;;;;;;;18.97;5.10;;;;;;;1.89;86.56;101131.09;123451;1105;64860;-78
2021/03/16 05:13:18;;;;;;;10.97;3.63;;;;;;;1.88;86.75;101134.64;123407;1103;64971;-78
2021/03/16 05:15:44;;;;;;;13.47;3.37;;;;;;;1.86;86.60;101144.38;123381;1102;65261;-78
2021/03/16 05:18:10;;;;;;;14.57;3.83;;;;;;;1.86;86.71;101141.77;123444;1102;65224;-77
2021/03/16 05:20:37;;;;;;;8.07;3.40;;;;;;;1.86;86.48;101146.99;123372;1102;64960;-79
2021/03/16 05:23:03;;;;;;;13.40;4.13;;;;;;;1.85;85.87;101153.19;123467;1105;64937;-76
2021/03/16 05:25:30;;;;;;;5.00;2.63;;;;;;;1.82;85.92;101159.44;123445;1105;64982;-77
2021/03/16 05:27:57;;;;;;;5.90;3.90;;;;;;;1.83;85.73;101160.30;123437;1102;64911;-75
2021/03/16 05:30:24;;;;;;;19.57;3.73;;;;;;;1.82;85.93;101159.44;123459;1103;65772;-76
2021/03/16 05:32:57;;;;;;;7.10;2.97;;;;;;;1.83;85.66;101173.38;123510;1102;66142;-76
2021/03/16 05:35:28;;;;;;;15.73;3.63;;;;;;;1.84;86.19;101167.19;123501;1105;65100;-75
2021/03/16 05:37:55;;;;;;;12.37;3.27;;;;;;;1.85;85.88;101163.65;123406;1102;64940;-76
2021/03/16 05:40:26;;;;;;;11.63;3.17;;;;;;;1.83;85.40;101165.53;123723;1102;64925;-77
2021/03/16 05:42:52;;;;;;;16.80;3.13;;;;;;;1.83;85.52;101189.91;123424;1102;64891;-77
2021/03/16 05:45:19;;;;;;;7.30;2.40;;;;;;;1.84;85.37;101173.25;123419;1102;64982;-76
2021/03/16 05:47:47;;;;;;;13.72;4.08;;;;;;;1.86;85.79;101178.38;123399;1105;65706;-78
2021/03/16 05:50:16;;;;;;;7.60;3.40;;;;;;;1.86;85.56;101183.62;123513;1102;64988;-74
2021/03/16 05:52:44;;;;;;;12.73;3.77;;;;;;;1.89;85.06;101180.80;123532;1102;64909;-76
2021/03/16 05:55:11;;;;;;;18.47;3.70;;;;;;;1.93;85.33;101197.10;123403;1102;64882;-75
2021/03/16 05:57:38;;;;;;;5.80;2.57;;;;;;;1.95;85.54;101182.97;123283;1102;66271;-77
2021/03/16 06:00:06;;;;;;;17.67;3.13;;;;;;;2.00;85.09;101185.28;123465;1102;65216;-77
2021/03/16 06:02:36;;;;;;;7.60;2.17;;;;;;;2.02;85.51;101181.61;123456;1102;65716;-77
2021/03/16 06:05:05;;;;;;;6.30;2.20;;;;;;;2.06;85.23;101187.45;123507;1102;65254;-74
2021/03/16 06:07:31;;;;;;;12.03;3.27;;;;;;;2.12;84.93;101186.19;123709;1102;64828;-74
2021/03/16 06:09:57;;;;;;;13.23;3.77;;;;;;;2.18;85.33;101185.77;123381;1102;65049;-76
2021/03/16 06:12:31;;;;;;;12.47;3.33;;;;;;;2.24;84.66;101190.56;123390;1106;65249;-78
2021/03/16 06:14:57;;;;;;;10.60;2.60;;;;;;;2.31;84.96;101199.64;123414;1105;66124;-76
2021/03/16 06:17:24;;;;;;;13.55;2.77;;;;;;;2.36;84.49;101204.55;123270;1102;64844;-77
2021/03/16 06:19:50;;;;;;;5.60;2.00;;;;;;;2.39;84.78;101199.11;123417;1102;64966;-74
2021/03/16 06:22:20;;;;;;;11.35;2.72;;;;;;;2.44;84.03;101221.41;123405;1102;64991;-75
2021/03/16 06:24:47;;;;;;;9.77;3.30;;;;;;;2.48;84.13;101205.47;123425;1103;65001;-76
2021/03/16 06:27:22;;;;;;;6.77;2.17;;;;;;;2.52;83.82;101206.92;123376;1103;65354;-74
2021/03/16 06:29:49;;;;;;;4.93;2.07;;;;;;;2.58;84.21;101203.87;123547;1102;64914;-75
2021/03/16 06:32:17;;;;;;;9.60;1.77;;;;;;;2.62;83.70;101211.39;123408;1102;64895;-76
2021/03/16 06:34:44;;;;;;;10.63;2.77;;;;;;;2.66;83.54;101219.87;123502;1105;64892;-75
2021/03/16 06:37:11;;;;;;;13.70;2.70;;;;;;;2.71;84.08;101206.44;123600;1102;64889;-75
2021/03/16 06:39:44;;;;;;;11.73;3.13;;;;;;;2.74;83.90;101209.67;123465;1102;65298;-77
2021/03/16 06:42:26;;;;;;;12.17;2.57;;;;;;;2.79;83.30;101215.41;123519;1105;64917;-75
2021/03/16 06:45:03;;;;;;;15.20;3.53;;;;;;;2.84;83.52;101220.31;123455;1105;66133;-76
2021/03/16 06:47:29;;;;;;;5.50;2.27;;;;;;;2.89;82.98;101225.20;123424;1103;65052;-74
2021/03/16 06:49:56;;;;;;;11.50;2.10;;;;;;;2.92;82.05;101228.45;123426;1102;64844;-74
2021/03/16 06:52:26;;;;;;;9.58;3.62;;;;;;;2.99;82.87;101228.83;123781;1102;65885;-73
2021/03/16 06:54:52;;;;;;;5.33;1.63;;;;;;;3.04;82.67;101227.56;123421;1103;64928;-76
2021/03/16 06:57:24;;;;;;;10.30;2.40;;;;;;;3.12;82.33;101226.97;123409;1102;64920;-75
2021/03/16 07:00:10;;;;;;;11.97;2.20;;;;;;;3.22;81.78;101227.97;123354;1102;65039;-76
2021/03/16 07:02:39;;;;;;;7.70;2.23;;;;;;;3.28;80.86;101238.97;123411;1105;65269;-77
2021/03/16 07:05:07;;;;;;;15.83;2.93;;;;;;;3.33;81.39;101229.78;123626;1105;64981;-80
2021/03/16 07:07:34;;;;;;;8.30;2.40;;;;;;;3.37;80.56;101239.09;123505;1105;64927;-75
2021/03/16 07:10:03;;;;;;;16.70;3.03;;;;;;;3.42;81.35;101242.23;123432;1105;64898;-76
2021/03/16 07:12:34;;;;;;;14.50;4.87;;;;;;;3.46;80.77;101242.81;123691;1104;64984;-77
2021/03/16 07:15:03;;;;;;;21.57;3.77;;;;;;;3.53;79.86;101243.19;123627;1105;64984;-75
2021/03/16 07:17:30;;;;;;;9.37;2.10;;;;;;;3.54;80.97;101237.83;123542;1105;64911;-77
2021/03/16 07:20:04;;;;;;;10.73;2.13;;;;;;;3.61;78.91;101239.06;123414;1105;65039;-77
2021/03/16 07:22:36;;;;;;;;;;;;;;;3.67;80.13;101245.61;123472;1105;66131;-77
2021/03/16 07:25:09;;;;;;;11.37;2.20;;;;;;;3.69;78.26;101254.20;123307;1102;65725;-77
2021/03/16 07:27:36;;;;;;;11.43;2.67;;;;;;;3.72;79.31;101247.88;123385;1105;64927;-76
2021/03/16 07:30:03;;;;;;;18.40;3.25;;;;;;;3.77;79.43;101248.38;123301;1105;64985;-75
2021/03/16 07:32:30;;;;;;;15.40;2.10;;;;;;;3.85;78.44;101240.77;123669;1102;65049;-75
2021/03/16 07:35:01;;;;;;;8.17;1.80;;;;;;;3.90;78.31;101241.23;123945;1105;64894;-78
2021/03/16 07:37:29;;;;;;;5.83;1.83;;;;;;;3.93;78.39;101243.63;123427;1105;64997;-76
2021/03/16 07:40:01;;;;;;;16.47;2.73;;;;;;;3.99;78.01;101245.76;123360;1105;65680;-75
2021/03/16 07:42:28;;;;;;;7.80;2.20;;;;;;;4.00;78.89;101252.70;123358;1105;64894;-77
2021/03/16 07:44:55;;;;;;;8.53;2.47;;;;;;;4.03;77.72;101251.62;123337;1102;65517;-75
2021/03/16 07:47:33;;;;;;;13.47;2.50;;;;;;;4.11;78.18;101251.86;123350;1105;64831;-74
2021/03/16 07:50:03;;;;;;;5.97;1.70;;;;;;;4.22;78.81;101257.11;123415;1102;65058;-77
2021/03/16 07:52:29;;;;;;;8.07;1.40;;;;;;;4.27;76.88;101269.88;123799;1105;64900;-77
2021/03/16 07:54:56;;;;;;;14.55;2.15;;;;;;;4.27;77.55;101254.97;123438;1102;64917;-75
2021/03/16 07:57:26;;;;;;;10.98;1.82;;;;;;;4.34;76.51;101265.00;123319;1106;64924;-73
2021/03/16 08:00:00;;;;;;;9.07;3.07;;;;;;;4.44;76.61;101256.27;123367;1102;65291;-73
2021/03/16 08:02:28;;;;;;;8.93;1.53;;;;;;;4.62;77.00;101263.65;123368;1102;64908;-74
2021/03/16 08:04:55;;;;;;;15.57;2.60;;;;;;;4.73;75.93;101266.24;123478;1105;64896;-73
2021/03/16 08:07:29;;;;;;;10.43;3.03;;;;;;;4.84;75.25;101263.58;123343;1105;65026;-75
2021/03/16 08:09:58;;;;;;;4.90;1.43;;;;;;;4.82;74.42;101270.75;123376;1105;64895;-75
2021/03/16 08:12:25;;;;;;;6.75;2.15;;;;;;;4.81;74.16;101273.52;123339;1102;64985;-73
2021/03/16 08:14:57;;;;;;;8.40;1.33;;;;;;;4.80;74.38;101267.44;123649;1105;65349;-73
2021/03/16 08:17:27;;;;;;;9.50;2.13;;;;;;;4.80;73.84;101271.84;123507;1105;64899;-75
2021/03/16 08:19:53;;;;;;;11.23;2.13;;;;;;;4.75;74.25;101269.59;123501;1105;65040;-74
2021/03/16 08:22:21;;;;;;;2.93;0.73;;;;;;;4.78;73.67;101282.50;123369;1102;64854;-75
2021/03/16 08:24:53;;;;;;;10.17;2.00;;;;;;;4.75;73.95;101287.98;123376;1103;64995;-74
2021/03/16 08:27:19;;;;;;;6.57;1.50;;;;;;;4.75;73.93;101295.87;123392;1105;65432;-74
2021/03/16 08:29:48;;;;;;;8.03;1.30;;;;;;;4.68;72.80;101284.19;123352;1105;65697;-74
2021/03/16 08:32:16;;;;;;;6.10;1.63;;;;;;;4.65;73.04;101290.52;123561;1105;64911;-75
2021/03/16 08:34:44;;;;;;;9.80;2.20;;;;;;;4.72;72.62;101285.61;123398;1104;64896;-74
2021/03/16 08:37:27;;;;;;;7.07;1.90;;;;;;;4.78;71.11;101300.90;123355;1102;65080;-74
2021/03/16 08:39:57;;;;;;;8.73;2.23;;;;;;;4.83;71.82;101298.73;123539;1105;64930;-74
2021/03/16 08:42:26;;;;;;;5.45;1.50;;;;;;;4.90;70.82;101286.75;123304;1103;65298;-73
2021/03/16 08:44:53;;;;;;;6.77;1.70;;;;;;;5.05;71.40;101291.73;123355;1102;65230;-73
2021/03/16 08:47:25;;;;;;;6.47;1.63;;;;;;;5.18;69.38;101281.88;123434;1105;65227;-73
2021/03/16 08:49:54;;;;;;;6.67;1.80;;;;;;;5.31;69.36;101284.34;123448;1104;65714;-74
2021/03/16 08:52:28;;;;;;;5.53;1.67;;;;;;;5.38;68.86;101297.85;123450;1102;64969;-73
2021/03/16 08:54:57;;;;;;;9.37;2.00;;;;;;;5.45;69.11;101299.83;123342;1105;66141;-74
2021/03/16 08:57:26;;;;;;;6.07;1.23;;;;;;;5.52;68.75;101294.89;123574;1105;64923;-74
2021/03/16 08:59:56;;;;;;;5.30;1.03;;;;;;;5.58;68.17;101312.81;123443;1103;64972;-74
2021/03/16 09:02:27;;;;;;;3.97;0.83;;;;;;;5.66;69.65;101302.48;123344;1105;64910;-73
2021/03/16 09:04:55;;;;;;;5.17;1.20;;;;;;;5.60;69.17;101310.06;123402;1102;64968;-73
2021/03/16 09:07:23;;;;;;;8.03;2.40;;;;;;;5.54;69.21;101315.83;123355;1105;64892;-74
2021/03/16 09:09:50;;;;;;;9.33;1.67;;;;;;;5.46;69.56;101308.55;123451;1102;64914;-75
2021/03/16 09:12:30;;;;;;;3.53;1.00;;;;;;;5.38;71.14;101313.64;123449;1102;65695;-74
2021/03/16 09:15:19;;;;;;;3.57;0.90;;;;;;;5.27;71.49;101320.61;123420;1104;65049;-74
2021/03/16 09:17:47;;;;;;;5.50;1.30;;;;;;;5.29;71.89;101313.42;123346;1102;64978;-74
2021/03/16 09:20:22;;;;;;;1.30;0.67;;;;;;;5.36;72.94;101315.55;123488;1105;65713;-75
2021/03/16 09:22:53;;;;;;;5.63;1.30;;;;;;;5.48;72.65;101310.12;123359;1102;64919;-73
2021/03/16 09:25:27;;;;;;;5.47;1.70;;;;;;;5.70;72.48;101309.16;123372;1101;64922;-73
2021/03/16 09:28:00;;;;;;;6.53;1.17;;;;;;;5.98;71.44;101301.61;123345;1102;64925;-75
2021/03/16 09:30:39;;;;;;;4.77;1.43;;;;;;;6.32;70.27;101293.45;123316;1103;65285;-75
2021/03/16 09:33:09;;;;;;;11.43;1.53;;;;;;;6.31;69.43;101297.04;123457;1105;64895;-75
2021/03/16 09:35:35;;;;;;;2.30;0.60;;;;;;;6.17;71.25;101302.69;123453;1105;64881;-74
2021/03/16 09:38:05;;;;;;;7.70;1.67;;;;;;;5.92;71.85;101313.45;123291;1105;64899;-74
2021/03/16 09:40:37;;;;;;;2.93;1.13;;;;;;;5.71;72.35;101309.98;123534;1105;65713;-74
2021/03/16 09:43:15;;;;;;;2.77;1.20;;;;;;;5.69;74.15;101304.84;123353;1105;65121;-76
2021/03/16 09:45:51;;;;;;;7.50;1.13;;;;;;;5.79;72.88;101309.36;123367;1105;64863;-73
2021/03/16 09:48:18;;;;;;;5.67;1.93;;;;;;;6.01;71.59;101313.67;123352;1105;64873;-74
2021/03/16 09:50:45;;;;;;;7.50;1.10;;;;;;;6.08;71.45;101306.94;123557;1105;65369;-74
2021/03/16 09:53:17;;;;;;;5.10;1.03;;;;;;;6.04;69.27;101321.33;123442;1102;64882;-73
2021/03/16 09:55:57;;;;;;;3.00;1.40;;;;;;;5.95;68.97;101306.29;124369;1105;64923;-74
2021/03/16 09:58:29;;;;;;;2.13;0.83;;;;;;;5.89;68.34;101318.16;123486;1102;64863;-74
2021/03/16 10:00:56;;;;;;;1.37;0.70;;;;;;;6.04;68.80;101311.63;123590;1102;64914;-76
2021/03/16 10:03:23;;;;;;;7.47;1.47;;;;;;;6.10;67.20;101315.55;124460;1105;65674;-76
2021/03/16 10:06:00;;;;;;;3.17;0.90;;;;;;;6.10;68.48;101315.55;123283;1106;64955;-76
2021/03/16 10:08:27;;;;;;;1.13;0.50;;;;;;;6.00;69.42;101331.28;123246;1103;64984;-76
2021/03/16 10:10:54;;;;;;;2.93;0.97;;;;;;;5.77;72.45;101340.24;123336;1105;64997;-75
2021/03/16 10:13:36;;;;;;;5.47;1.07;;;;;;;5.48;73.90;101340.84;123485;1105;65033;-75
2021/03/16 10:16:10;;;;;;;1.40;0.60;;;;;;;5.44;76.80;101334.16;123724;1103;64886;-76
2021/03/16 10:18:48;;;;;;;3.33;0.80;;;;;;;5.44;77.28;101331.52;123706;1103;64879;-75
2021/03/16 10:21:16;;;;;;;7.90;1.73;;;;;;;5.42;77.31;101343.97;123369;1105;64956;-75
2021/03/16 10:23:42;;;;;;;0.93;0.50;;;;;;;5.51;77.65;101337.97;123349;1102;64969;-76
2021/03/16 10:26:11;;;;;;;4.43;0.87;;;;;;;5.74;76.70;101325.55;123380;1102;65294;-75
2021/03/16 10:28:41;;;;;;;5.63;1.03;;;;;;;5.99;74.75;101345.39;123545;1105;64898;-75
2021/03/16 10:31:27;;;;;;;5.20;1.17;;;;;;;6.07;75.06;101334.23;123456;1103;64991;-76
2021/03/16 10:33:58;;;;;;;5.37;0.93;;;;;;;6.19;74.02;101329.73;123394;1103;64924;-73
2021/03/16 10:36:24;;;;;;;5.03;0.80;;;;;;;6.19;71.48;101327.92;123383;1102;66002;-76
2021/03/16 10:38:51;;;;;;;1.50;0.63;;;;;;;6.17;70.36;101331.66;123306;1105;64912;-76
2021/03/16 10:41:21;;;;;;;4.63;1.03;;;;;;;6.15;70.21;101333.59;123464;1105;65036;-77
2021/03/16 10:43:50;;;;;;;2.93;1.10;;;;;;;6.24;70.04;101338.06;123413;1102;65016;-77
2021/03/16 10:46:17;;;;;;;5.37;1.03;;;;;;;6.36;69.44;101339.66;123393;1102;64925;-77
2021/03/16 10:48:43;;;;;;;1.50;0.60;;;;;;;6.34;69.42;101349.49;123457;1105;65245;-76
2021/03/16 10:51:09;;;;;;;5.33;1.00;;;;;;;6.18;69.71;101364.92;123373;1105;65045;-77
2021/03/16 10:53:36;;;;;;;3.60;1.17;;;;;;;5.89;72.00;101355.02;123398;1105;65251;-77
2021/03/16 10:56:04;;;;;;;3.45;1.00;;;;;;;5.77;69.98;101343.70;123449;1102;64975;-76
2021/03/16 10:58:31;;;;;;;3.50;1.05;;;;;;;5.80;70.67;101340.84;123568;1105;65033;-77
2021/03/16 11:00:58;;;;;;;3.83;0.90;;;;;;;5.78;71.05;101336.63;123435;1103;65062;-76
2021/03/16 11:03:33;;;;;;;3.87;0.90;;;;;;;5.84;72.11;101351.92;123329;1102;64889;-76
2021/03/16 11:06:00;;;;;;;4.30;1.07;;;;;;;5.99;72.80;101336.67;123552;1102;64847;-76
2021/03/16 11:08:28;;;;;;;3.33;1.07;;;;;;;6.13;71.60;101337.17;123411;1105;64969;-78
2021/03/16 11:10:54;;;;;;;4.00;0.90;;;;;;;6.47;71.03;101323.75;123358;1102;65338;-78
2021/03/16 11:13:20;;;;;;;7.80;0.77;;;;;;;6.92;67.49;101327.77;123314;1103;64975;-77
2021/03/16 11:15:48;;;;;;;3.97;0.90;;;;;;;7.32;65.94;101350.61;123396;1105;64910;-78
2021/03/16 11:18:17;;;;;;;2.20;0.70;;;;;;;7.27;63.51;101345.75;123455;1106;65347;-78
2021/03/16 11:20:44;;;;;;;3.40;0.83;;;;;;;7.43;63.09;101352.28;123576;1103;64832;-78
2021/03/16 11:23:10;;;;;;;2.10;0.60;;;;;;;7.42;61.55;101345.35;123548;1102;64895;-80
2021/03/16 11:25:36;;;;;;;3.37;0.97;;;;;;;7.23;61.66;101354.91;123753;1105;64889;-80
2021/03/16 11:28:03;;;;;;;3.73;1.00;;;;;;;7.35;63.25;101356.46;123585;1105;64952;-77
2021/03/16 11:30:31;;;;;;;3.25;0.90;;;;;;;7.32;61.90;101340.88;123486;1105;64853;-77